Time;durP1;ratioP1;P1;durP2;ratioP2;P2;SDS_P1;SDS_P2;PMS_P1;PMS_P2;Temp;Humidity;BMP_temperature;BMP_pressure;BME280_temperature;BME280_humidity;BME280_pressure;Samples;Min_cycle;Max_cycle;Signal;HPM_P1;HPM_P2
2022/12/17 13:07:29;;;;;;;0.80;0.80;;;;;;;-4.96;91.26;99466.44;5084760;28;20044;-88
2022/12/17 13:09:57;;;;;;;0.52;0.52;;;;;;;-4.94;91.46;99479.44;5113455;28;20047;-86
2022/12/17 13:12:32;;;;;;;0.90;0.90;;;;;;;-4.93;91.34;99475.88;5099508;28;20048;-85
2022/12/17 13:15:05;;;;;;;0.73;0.73;;;;;;;-4.83;91.40;99477.56;5095161;28;20039;-86
2022/12/17 13:18:02;;;;;;;0.60;0.60;;;;;;;-4.81;91.41;99483.53;5093690;28;20048;-85
2022/12/17 13:20:32;;;;;;;0.80;0.80;;;;;;;-4.83;91.18;99495.16;5087611;28;20048;-85
2022/12/17 13:23:15;;;;;;;0.77;0.77;;;;;;;-4.81;91.16;99501.94;5083977;28;20063;-86
2022/12/17 13:25:43;;;;;;;0.80;0.80;;;;;;;-4.75;91.18;99499.75;5094094;28;20112;-87
2022/12/17 13:28:29;;;;;;;0.88;0.88;;;;;;;-4.72;91.00;99497.66;5109341;27;20047;-88
2022/12/17 13:31:05;;;;;;;0.73;0.73;;;;;;;-4.79;90.95;99481.56;5093326;28;20044;-87
2022/12/17 13:33:46;;;;;;;0.80;0.80;;;;;;;-4.82;90.90;99470.47;5102997;28;20051;-86
2022/12/17 13:36:40;;;;;;;0.70;0.70;;;;;;;-4.82;90.84;99467.84;5095165;28;20474;-88
2022/12/17 13:39:49;;;;;;;0.90;0.90;;;;;;;-4.93;90.72;99445.09;5074720;28;20103;-84
2022/12/17 13:42:21;;;;;;;0.70;0.70;;;;;;;-4.87;90.71;99460.34;5104742;28;20814;-85
2022/12/17 13:44:49;;;;;;;0.98;0.98;;;;;;;-4.88;90.53;99457.88;5089752;28;20120;-85
2022/12/17 13:47:20;;;;;;;0.80;0.80;;;;;;;-4.92;90.58;99441.47;5108976;28;20070;-85
2022/12/17 13:49:54;;;;;;;0.80;0.80;;;;;;;-4.88;90.67;99447.34;5078355;28;20044;-87
2022/12/17 13:52:41;;;;;;;0.90;0.90;;;;;;;-4.98;90.77;99436.78;5113233;28;20048;-84
2022/12/17 13:55:17;;;;;;;0.80;0.80;;;;;;;-4.96;90.90;99437.47;5073623;28;20209;-83
2022/12/17 13:57:45;;;;;;;0.85;0.85;;;;;;;-4.93;90.94;99442.47;5066366;28;20044;-86
2022/12/17 14:00:24;;;;;;;0.80;0.80;;;;;;;-4.94;90.77;99443.41;5090925;28;20796;-85
2022/12/17 14:02:52;;;;;;;0.70;0.70;;;;;;;-4.99;90.86;99432.47;5091190;28;20079;-84
2022/12/17 14:05:30;;;;;;;0.90;0.90;;;;;;;-4.93;90.69;99439.84;5103094;28;20051;-84
2022/12/17 14:07:59;;;;;;;0.80;0.80;;;;;;;-4.91;90.99;99442.31;5063563;28;20043;-84
2022/12/17 14:10:27;;;;;;;0.80;0.80;;;;;;;-4.92;90.76;99430.94;5105321;28;20139;-87
2022/12/17 14:13:13;;;;;;;0.88;0.88;;;;;;;-4.93;90.58;99437.19;5072537;28;20043;-83
2022/12/17 14:15:48;;;;;;;0.80;0.80;;;;;;;-4.91;90.70;99443.16;5066969;28;20056;-83
2022/12/17 14:18:17;;;;;;;;;;;;;;;-4.94;90.87;99440.78;5069249;28;20143;-85
2022/12/17 14:20:44;;;;;;;0.55;0.55;;;;;;;-4.92;90.82;99451.19;5069099;28;20687;-85
2022/12/17 14:23:23;;;;;;;0.80;0.80;;;;;;;-4.89;90.79;99449.09;5087096;28;20073;-83
2022/12/17 14:25:50;;;;;;;0.77;0.77;;;;;;;-4.90;90.66;99436.09;5085051;28;20094;-84
2022/12/17 14:28:35;;;;;;;0.80;0.80;;;;;;;-4.96;90.67;99421.69;5069553;28;20044;-83
2022/12/17 14:31:06;;;;;;;0.90;0.90;;;;;;;-4.97;90.46;99427.91;5089890;28;20051;-84
2022/12/17 14:34:09;;;;;;;0.82;0.82;;;;;;;-4.97;90.75;99430.53;5106437;28;20049;-85
2022/12/17 14:36:40;;;;;;;1.00;1.00;;;;;;;-5.01;90.76;99426.53;5087516;28;20203;-85
2022/12/17 14:39:30;;;;;;;0.80;0.80;;;;;;;-4.95;90.70;99430.41;5088608;28;20047;-85
2022/12/17 14:42:24;;;;;;;0.70;0.70;;;;;;;-4.90;90.93;99436.09;5107000;28;20445;-84
2022/12/17 14:45:24;;;;;;;0.70;0.70;;;;;;;-4.85;90.79;99431.25;5094251;28;20056;-84
2022/12/17 14:47:59;;;;;;;0.80;0.80;;;;;;;-4.89;90.93;99433.31;5084326;28;20506;-83
2022/12/17 14:50:33;;;;;;;0.88;0.88;;;;;;;-4.94;90.52;99424.97;5095767;28;20044;-83
2022/12/17 14:53:22;;;;;;;1.00;1.00;;;;;;;-4.96;90.78;99405.03;5082055;28;20521;-86
2022/12/17 14:55:57;;;;;;;1.00;1.00;;;;;;;-4.94;90.55;99403.94;5099740;28;20521;-85
2022/12/17 14:58:25;;;;;;;0.95;0.95;;;;;;;-4.96;90.81;99392.72;5097119;28;20047;-83
2022/12/17 15:01:04;;;;;;;0.80;0.80;;;;;;;-5.01;90.59;99379.97;5075406;28;20388;-83
2022/12/17 15:03:36;;;;;;;0.70;0.70;;;;;;;-4.99;90.75;99377.16;5074342;28;20071;-83
2022/12/17 15:06:06;;;;;;;0.90;0.90;;;;;;;-4.99;90.86;99373.72;5082066;28;20553;-82
2022/12/17 15:08:35;;;;;;;0.70;0.70;;;;;;;-4.99;90.80;99368.44;5110363;28;20138;-84
2022/12/17 15:11:03;;;;;;;0.88;0.88;;;;;;;-5.00;90.64;99380.78;5091779;28;20047;-83
2022/12/17 15:13:30;;;;;;;0.80;0.80;;;;;;;-5.02;90.88;99372.19;5108147;28;20043;-83
2022/12/17 15:15:59;;;;;;;0.82;0.82;;;;;;;-5.02;90.89;99378.28;5108601;28;20130;-83
2022/12/17 15:18:26;;;;;;;0.80;0.80;;;;;;;-4.98;91.02;99368.31;5106989;28;20047;-83
2022/12/17 15:20:53;;;;;;;0.80;0.80;;;;;;;-4.95;91.10;99361.97;5113020;27;20055;-83
2022/12/17 15:23:22;;;;;;;0.80;0.80;;;;;;;-4.98;91.17;99357.78;5083397;28;20453;-83
2022/12/17 15:25:51;;;;;;;0.73;0.73;;;;;;;-5.03;90.99;99358.19;5109685;27;20051;-84
2022/12/17 15:28:21;;;;;;;0.90;0.90;;;;;;;-5.04;91.11;99359.19;5093356;28;20464;-84
2022/12/17 15:30:48;;;;;;;0.90;0.90;;;;;;;-5.02;91.11;99361.66;5072125;28;20141;-84
2022/12/17 15:33:16;;;;;;;0.75;0.75;;;;;;;-5.02;91.53;99361.66;5076456;27;20054;-83
2022/12/17 15:35:43;;;;;;;0.90;0.90;;;;;;;-5.08;91.58;99349.88;5069516;27;20513;-84
2022/12/17 15:38:11;;;;;;;0.60;0.60;;;;;;;-5.00;91.49;99365.00;5113586;27;20047;-84
2022/12/17 15:40:38;;;;;;;0.77;0.77;;;;;;;-5.02;91.54;99366.91;5085510;27;20364;-84
2022/12/17 15:43:11;;;;;;;0.80;0.80;;;;;;;-5.02;91.56;99369.56;5081864;28;20060;-86
2022/12/17 15:45:49;;;;;;;0.93;0.93;;;;;;;-5.01;91.54;99363.34;5088310;28;20468;-86
2022/12/17 15:48:22;;;;;;;0.63;0.63;;;;;;;-5.05;91.54;99365.41;5095185;28;20497;-85
2022/12/17 15:50:49;;;;;;;0.68;0.68;;;;;;;-5.04;91.45;99382.00;5077896;28;20128;-87
2022/12/17 15:53:16;;;;;;;0.80;0.80;;;;;;;-4.98;91.67;99404.34;5109903;28;20082;-86
2022/12/17 15:55:43;;;;;;;0.80;0.80;;;;;;;-4.94;91.52;99392.56;5101080;28;20527;-86
2022/12/17 15:58:10;;;;;;;0.75;0.75;;;;;;;-4.97;91.40;99390.22;5112589;28;20135;-85
2022/12/17 16:00:37;;;;;;;0.82;0.82;;;;;;;-4.93;91.55;99381.09;5113799;28;20048;-86
2022/12/17 16:03:05;;;;;;;0.75;0.75;;;;;;;-4.93;91.86;99368.75;5064604;28;20047;-85
2022/12/17 16:05:32;;;;;;;0.70;0.70;;;;;;;-4.95;91.57;99368.03;5105524;28;20052;-86
2022/12/17 16:08:01;;;;;;;0.60;0.60;;;;;;;-4.96;91.66;99358.50;5056948;28;20083;-85
2022/12/17 16:10:31;;;;;;;0.80;0.80;;;;;;;-4.98;91.84;99360.44;5085540;28;20406;-86
2022/12/17 16:12:59;;;;;;;0.70;0.70;;;;;;;-4.97;92.14;99356.81;5100068;28;20070;-85
2022/12/17 16:15:27;;;;;;;0.80;0.80;;;;;;;-4.96;92.08;99376.06;5065847;28;20182;-85
2022/12/17 16:17:54;;;;;;;1.00;1.00;;;;;;;-4.92;92.02;99378.31;5081309;28;20044;-86
2022/12/17 16:20:22;;;;;;;0.75;0.75;;;;;;;-4.86;92.13;99369.00;5080099;28;20047;-86
2022/12/17 16:22:49;;;;;;;0.80;0.80;;;;;;;-4.88;92.02;99363.06;5076622;28;20130;-85
2022/12/17 16:25:16;;;;;;;0.60;0.60;;;;;;;-4.88;92.10;99378.88;5093154;28;20649;-86
2022/12/17 16:27:43;;;;;;;0.85;0.85;;;;;;;-4.88;92.18;99378.88;5113309;28;20135;-86
2022/12/17 16:30:11;;;;;;;0.68;0.68;;;;;;;-4.96;91.88;99339.22;5074703;28;20082;-86
2022/12/17 16:32:38;;;;;;;0.60;0.60;;;;;;;-4.92;92.21;99335.34;5111049;28;20048;-86
2022/12/17 16:35:06;;;;;;;0.82;0.82;;;;;;;-4.91;92.47;99343.13;5094283;28;20112;-88
2022/12/17 16:37:33;;;;;;;0.90;0.90;;;;;;;-5.00;92.18;99346.56;5100992;27;20044;-86
2022/12/17 16:40:00;;;;;;;0.85;0.85;;;;;;;-4.91;92.65;99371.22;5109578;27;20047;-85
2022/12/17 16:42:31;;;;;;;0.88;0.88;;;;;;;-4.98;92.32;99363.06;5094955;28;20048;-86
2022/12/17 16:44:58;;;;;;;0.90;0.90;;;;;;;-5.03;92.83;99370.53;5104616;28;20051;-86
2022/12/17 16:47:25;;;;;;;0.70;0.70;;;;;;;-4.91;92.48;99382.63;5109837;27;20062;-85
2022/12/17 16:49:52;;;;;;;0.70;0.70;;;;;;;-4.90;92.54;99359.75;5100713;28;20039;-84
2022/12/17 16:52:20;;;;;;;0.70;0.70;;;;;;;-4.93;92.63;99354.75;5111025;28;20522;-85
2022/12/17 16:54:47;;;;;;;0.80;0.80;;;;;;;-4.93;92.44;99360.03;5083465;28;20532;-85
2022/12/17 16:57:14;;;;;;;0.90;0.90;;;;;;;-4.94;92.68;99361.81;4752982;28;9999735;-89
2022/12/17 16:59:46;;;;;;;0.70;0.70;;;;;;;-4.95;92.67;99346.16;5104021;27;20248;-89
2022/12/17 17:02:14;;;;;;;0.70;0.70;;;;;;;-4.83;92.75;99348.53;5100099;28;20407;-89
2022/12/17 17:04:42;;;;;;;0.70;0.70;;;;;;;-4.89;92.69;99335.88;5085940;28;20054;-90
2022/12/17 17:07:09;;;;;;;0.77;0.77;;;;;;;-4.88;92.78;99331.47;5108692;28;20051;-92
2022/12/17 17:09:38;;;;;;;0.90;0.90;;;;;;;-5.00;92.88;99296.56;5072416;28;20052;-91
2022/12/17 17:12:51;;;;;;;0.80;0.80;;;;;;;-4.89;92.93;99296.41;5111309;28;20040;-90
2022/12/17 17:15:18;;;;;;;0.80;0.80;;;;;;;-5.04;92.98;99282.84;5083283;28;20052;-90
2022/12/17 17:17:46;;;;;;;0.70;0.70;;;;;;;-5.00;92.72;99286.03;5110350;27;20154;-90
2022/12/17 17:20:22;;;;;;;0.80;0.80;;;;;;;-4.96;92.98;99282.16;5098281;27;20493;-91
2022/12/17 17:22:52;;;;;;;0.70;0.70;;;;;;;-4.86;93.12;99279.50;5108644;28;20047;-89
2022/12/17 17:25:25;;;;;;;0.85;0.85;;;;;;;-4.92;93.10;99278.25;5090983;28;20087;-89
2022/12/17 17:28:16;;;;;;;0.98;0.98;;;;;;;-4.93;93.16;99281.88;5096792;28;20066;-89
2022/12/17 17:30:44;;;;;;;0.77;0.77;;;;;;;-4.91;93.08;99285.19;5062342;28;20055;-90
2022/12/17 17:33:33;;;;;;;0.70;0.70;;;;;;;-4.89;93.06;99285.03;5097941;28;20057;-91
2022/12/17 17:39:33;;;;;;;0.90;0.90;;;;;;;-4.95;93.06;99267.19;5090907;23;20062;-92
2022/12/17 17:42:14;;;;;;;0.60;0.60;;;;;;;-5.03;93.09;99257.34;5004245;28;20038;-91
2022/12/17 17:44:47;;;;;;;0.80;0.80;;;;;;;-5.02;93.27;99256.38;4958314;28;20050;-90
2022/12/17 17:47:17;;;;;;;0.80;0.80;;;;;;;-5.05;93.37;99254.03;5001285;28;20058;-92
2022/12/17 17:49:44;;;;;;;0.80;0.80;;;;;;;-5.10;93.51;99243.91;4999870;28;20050;-90
2022/12/17 17:52:19;;;;;;;0.50;0.50;;;;;;;-5.02;93.45;99256.38;5004673;28;20046;-92
2022/12/17 17:54:53;;;;;;;0.80;0.80;;;;;;;-5.09;93.39;99250.00;5163390;23;20047;-94
2022/12/17 18:01:19;;;;;;;0.85;0.85;;;;;;;-5.07;93.50;99248.06;5038318;23;20071;-90
2022/12/17 18:03:52;;;;;;;0.70;0.70;;;;;;;-5.06;93.75;99255.00;4969805;28;20054;-90
2022/12/17 18:06:31;;;;;;;1.00;1.00;;;;;;;-5.03;93.77;99262.63;4973986;29;20055;-90
2022/12/17 18:09:06;;;;;;;0.90;0.90;;;;;;;-5.00;93.73;99267.59;4972108;29;20055;-90
2022/12/17 18:13:53;;;;;;;0.60;0.60;;;;;;;-4.93;93.87;99275.78;4942492;29;20051;-92
2022/12/17 18:15:01;;;;;;;0.75;0.75;;;;;;;-4.93;94.02;99281.03;4939748;29;20767;-87
2022/12/17 18:17:41;;;;;;;0.70;0.70;;;;;;;-4.94;94.04;99272.28;4945459;29;20056;-89
2022/12/17 18:20:09;;;;;;;0.70;0.70;;;;;;;-5.09;94.00;99255.25;4958748;29;20051;-88
2022/12/17 18:22:39;;;;;;;0.70;0.70;;;;;;;-4.95;94.11;99268.00;4938767;29;20146;-90
2022/12/17 18:25:07;;;;;;;0.55;0.55;;;;;;;-4.99;94.16;99263.97;4939283;29;20055;-89
2022/12/17 18:27:44;;;;;;;0.80;0.80;;;;;;;-5.04;94.22;99258.31;4935724;29;20088;-87
2022/12/17 18:30:14;;;;;;;0.75;0.75;;;;;;;-5.05;94.23;99248.75;4949077;29;20605;-88
2022/12/17 18:32:42;;;;;;;0.70;0.70;;;;;;;-5.00;94.05;99243.91;4922200;29;20402;-83
2022/12/17 18:35:12;;;;;;;0.80;0.80;;;;;;;-5.01;94.52;99242.25;4927016;29;20051;-87
2022/12/17 18:37:39;;;;;;;0.50;0.50;;;;;;;-4.96;94.29;99250.56;4924825;29;20087;-88
2022/12/17 18:40:08;;;;;;;0.60;0.60;;;;;;;-4.93;94.45;99254.72;4924490;29;20048;-87
2022/12/17 18:45:22;;;;;;;0.90;0.90;;;;;;;-5.04;94.31;99243.38;4925431;29;20702;-88
2022/12/17 18:47:55;;;;;;;0.80;0.80;;;;;;;-5.15;94.59;99229.50;4917148;29;20051;-90
2022/12/17 18:50:22;;;;;;;0.80;0.80;;;;;;;-5.15;94.74;99232.13;4909820;29;20052;-86
2022/12/17 18:52:49;;;;;;;0.75;0.75;;;;;;;-5.08;94.75;99227.97;4911187;29;20047;-87
2022/12/17 18:55:17;;;;;;;0.90;0.90;;;;;;;-5.11;94.69;99221.19;4926161;29;20048;-87
2022/12/17 18:57:50;;;;;;;0.88;0.88;;;;;;;-5.20;94.65;99208.03;4892034;29;20175;-89
2022/12/17 19:00:19;;;;;;;0.80;0.80;;;;;;;-5.11;94.84;99218.56;4896188;29;20051;-88
2022/12/17 19:02:52;;;;;;;0.68;0.68;;;;;;;-5.12;94.87;99209.00;4900716;29;20052;-89
2022/12/17 19:05:19;;;;;;;0.70;0.70;;;;;;;-5.09;94.96;99199.97;4939134;29;20052;-89
2022/12/17 19:07:46;;;;;;;0.70;0.70;;;;;;;-5.24;95.06;99189.91;4956566;28;20059;-87
2022/12/17 19:10:17;;;;;;;0.80;0.80;;;;;;;-5.18;95.11;99195.56;4964495;28;20114;-87
2022/12/17 19:13:17;;;;;;;0.70;0.70;;;;;;;-5.10;95.14;99196.53;4941100;29;20055;-86
2022/12/17 19:15:44;;;;;;;0.75;0.75;;;;;;;-5.10;95.20;99193.91;4954283;28;20081;-85
2022/12/17 19:18:11;;;;;;;0.65;0.65;;;;;;;-5.13;95.28;99186.28;4970176;28;20047;-86
2022/12/17 19:20:39;;;;;;;0.70;0.70;;;;;;;-5.14;95.41;99187.28;4965186;29;20055;-86
2022/12/17 19:23:07;;;;;;;0.70;0.70;;;;;;;-5.12;95.46;99184.47;4913877;29;20048;-86
2022/12/17 19:25:36;;;;;;;0.75;0.75;;;;;;;-5.07;95.41;99195.41;4924327;29;20055;-87
2022/12/17 19:28:04;;;;;;;0.80;0.80;;;;;;;-5.12;95.44;99197.63;4941866;29;20175;-87
2022/12/17 19:30:31;;;;;;;0.90;0.90;;;;;;;-5.10;95.48;99191.25;4953037;29;20055;-87
2022/12/17 19:32:59;;;;;;;0.70;0.70;;;;;;;-5.03;95.43;99207.34;4921189;29;20455;-88
2022/12/17 19:35:28;;;;;;;0.70;0.70;;;;;;;-5.07;95.38;99187.53;4941210;29;20065;-86
2022/12/17 19:37:57;;;;;;;0.85;0.85;;;;;;;-5.01;95.08;99186.97;4941313;29;20139;-85
2022/12/17 19:40:26;;;;;;;0.80;0.80;;;;;;;-5.05;95.13;99178.50;4936522;29;20463;-85
2022/12/17 19:42:55;;;;;;;0.73;0.73;;;;;;;-5.06;95.09;99176.03;4942393;29;20067;-89
2022/12/17 19:45:23;;;;;;;0.80;0.80;;;;;;;-5.13;94.85;99173.13;4950960;29;20062;-87
2022/12/17 19:47:51;;;;;;;0.80;0.80;;;;;;;-5.17;94.92;99163.84;4908744;29;20138;-88
2022/12/17 19:50:18;;;;;;;0.75;0.75;;;;;;;-5.20;95.09;99158.88;4937806;29;20059;-88
2022/12/17 19:52:49;;;;;;;0.80;0.80;;;;;;;-5.17;94.96;99153.31;4938541;29;20055;-88
2022/12/17 19:55:16;;;;;;;0.88;0.88;;;;;;;-5.14;94.81;99162.72;4963871;29;20055;-87
2022/12/17 19:57:46;;;;;;;0.90;0.90;;;;;;;-5.33;94.55;99132.84;4916177;29;20304;-88
2022/12/17 20:00:13;;;;;;;0.70;0.70;;;;;;;-5.18;94.57;99140.31;4943413;29;20682;-88
2022/12/17 20:02:41;;;;;;;0.65;0.65;;;;;;;-5.19;94.31;99138.63;4911928;29;20109;-88
2022/12/17 20:05:08;;;;;;;0.63;0.63;;;;;;;-5.23;94.34;99127.56;4961853;29;20051;-89
2022/12/17 20:07:35;;;;;;;0.70;0.70;;;;;;;-5.17;94.50;99131.44;4958370;29;20047;-89
2022/12/17 20:10:04;;;;;;;0.70;0.70;;;;;;;-5.18;94.55;99127.97;4932960;29;20043;-89
2022/12/17 20:12:35;;;;;;;0.80;0.80;;;;;;;-5.18;94.39;99125.34;4925941;29;20047;-88
2022/12/17 20:15:06;;;;;;;0.90;0.90;;;;;;;-5.21;94.46;99119.56;4967018;28;20051;-91
2022/12/17 20:17:34;;;;;;;0.82;0.82;;;;;;;-5.29;94.33;99113.19;4912983;29;20151;-89
2022/12/17 20:20:01;;;;;;;0.80;0.80;;;;;;;-5.21;94.22;99109.84;4956789;29;20075;-91
2022/12/17 20:22:32;;;;;;;0.75;0.75;;;;;;;-5.23;94.11;99094.19;4951858;29;20047;-91
2022/12/17 20:25:06;;;;;;;0.88;0.88;;;;;;;-5.30;93.75;99095.72;4933539;29;20052;-90
2022/12/17 20:27:34;;;;;;;0.73;0.73;;;;;;;-5.38;93.59;99087.72;4932283;29;20548;-90
2022/12/17 20:30:01;;;;;;;0.90;0.90;;;;;;;-5.30;94.16;99089.63;4946094;29;20138;-89
2022/12/17 20:32:34;;;;;;;0.85;0.85;;;;;;;-5.43;94.45;99062.81;4950710;28;20054;-89
2022/12/17 20:35:02;;;;;;;0.70;0.70;;;;;;;-5.32;94.04;99087.13;4946988;29;20135;-91
2022/12/17 20:37:29;;;;;;;0.60;0.60;;;;;;;-5.32;94.28;99071.34;4948796;29;20106;-91
2022/12/17 20:39:56;;;;;;;0.70;0.70;;;;;;;-5.41;94.19;99056.44;4911461;29;20047;-88
2022/12/17 20:42:23;;;;;;;0.77;0.77;;;;;;;-5.38;94.16;99047.44;4944324;29;20123;-90
2022/12/17 20:44:52;;;;;;;0.70;0.70;;;;;;;-5.32;94.22;99055.56;4936300;29;20047;-91
2022/12/17 20:47:19;;;;;;;0.90;0.90;;;;;;;-5.35;93.96;99058.50;4937189;29;20111;-91
2022/12/17 20:49:46;;;;;;;0.93;0.93;;;;;;;-5.43;94.04;99054.91;4931757;29;20055;-91
2022/12/17 20:52:19;;;;;;;0.80;0.80;;;;;;;-5.48;94.01;99035.13;4932354;29;20047;-89
2022/12/17 20:54:46;;;;;;;0.80;0.80;;;;;;;-5.51;94.16;99014.38;4933762;29;20162;-90
2022/12/17 20:57:14;;;;;;;0.80;0.80;;;;;;;-5.46;93.91;99024.47;4931666;29;20534;-87
2022/12/17 20:59:41;;;;;;;0.63;0.63;;;;;;;-5.42;94.09;99022.38;4932082;29;20145;-87
2022/12/17 21:02:09;;;;;;;0.70;0.70;;;;;;;-5.41;94.13;99029.31;4917414;29;20078;-87
2022/12/17 21:04:51;;;;;;;0.70;0.70;;;;;;;-5.41;94.30;99006.47;4915950;29;20143;-89
2022/12/17 21:07:20;;;;;;;0.57;0.57;;;;;;;-5.48;94.11;98989.59;4917317;29;20054;-89
2022/12/17 21:09:47;;;;;;;0.68;0.68;;;;;;;-5.38;94.36;98994.81;4951347;28;20051;-89
2022/12/17 21:12:15;;;;;;;0.70;0.70;;;;;;;-5.42;94.11;98990.81;4965919;28;20042;-90
2022/12/17 21:14:42;;;;;;;0.57;0.57;;;;;;;-5.52;94.21;98968.00;4967931;28;20125;-89
2022/12/17 21:17:10;;;;;;;0.77;0.77;;;;;;;-5.47;94.10;98968.41;4937738;29;20701;-89
2022/12/17 21:19:37;;;;;;;0.82;0.82;;;;;;;-5.53;94.01;98960.25;4951570;28;20426;-88
2022/12/17 21:22:12;;;;;;;0.70;0.70;;;;;;;-5.61;94.15;98941.75;4959507;28;20109;-89
2022/12/17 21:24:39;;;;;;;0.70;0.70;;;;;;;-5.58;94.11;98933.56;4955178;28;20051;-86
2022/12/17 21:27:07;;;;;;;0.80;0.80;;;;;;;-5.57;94.07;98929.94;4956993;29;20051;-86
2022/12/17 21:29:40;;;;;;;0.60;0.60;;;;;;;-5.56;94.28;98934.25;4924720;29;20122;-88
2022/12/17 21:32:33;;;;;;;0.80;0.80;;;;;;;-5.51;94.34;98929.38;4951339;28;20094;-91
2022/12/17 21:35:11;;;;;;;0.70;0.70;;;;;;;-5.54;94.08;98908.63;4947034;29;20052;-91
2022/12/17 21:37:40;;;;;;;0.70;0.70;;;;;;;-5.56;94.17;98905.31;4922844;29;20102;-91
2022/12/17 21:40:27;;;;;;;0.77;0.77;;;;;;;-5.57;94.17;98907.13;5005127;23;20585;31
2022/12/17 21:43:02;;;;;;;0.75;0.75;;;;;;;-5.74;94.12;98877.16;4913880;29;20546;-94
2022/12/17 21:45:59;;;;;;;0.60;0.60;;;;;;;-5.68;94.23;98873.09;4909477;29;20080;-94
2022/12/17 21:48:32;;;;;;;0.82;0.82;;;;;;;-5.61;94.14;98892.59;4896290;29;20148;-91
2022/12/17 21:51:10;;;;;;;0.60;0.60;;;;;;;-5.70;94.02;98877.69;4898447;29;20585;-94
2022/12/17 21:53:43;;;;;;;0.70;0.70;;;;;;;-5.59;94.26;98895.91;4928406;29;20048;-94
2022/12/17 21:56:34;;;;;;;0.73;0.73;;;;;;;-5.58;94.16;98908.09;4888778;29;20135;-90
2022/12/17 21:59:05;;;;;;;0.80;0.80;;;;;;;-5.64;94.29;98900.78;4894754;29;20056;-89
2022/12/17 22:01:33;;;;;;;0.73;0.73;;;;;;;-5.60;94.27;98893.41;4892333;29;20196;-90
2022/12/17 22:04:02;;;;;;;0.80;0.80;;;;;;;-5.68;94.37;98889.69;4877410;29;20055;-92
2022/12/17 22:06:32;;;;;;;0.80;0.80;;;;;;;-5.72;94.58;98890.13;4862739;29;20060;-91
2022/12/17 22:09:06;;;;;;;0.80;0.80;;;;;;;-5.61;94.60;98886.53;4912803;29;20052;-89
2022/12/17 22:14:01;;;;;;;1.77;0.90;;;;;;;-5.59;94.55;98879.31;4897017;29;20145;-92
2022/12/17 22:14:40;;;;;;;0.70;0.70;;;;;;;-5.63;94.68;98870.06;4895004;29;20091;-89
2022/12/17 22:17:07;;;;;;;0.90;0.90;;;;;;;-5.62;94.72;98863.81;4876347;29;20581;-91
2022/12/17 22:19:34;;;;;;;0.60;0.60;;;;;;;-5.62;94.78;98862.03;4902090;29;20083;-90
2022/12/17 22:22:02;;;;;;;0.77;0.77;;;;;;;-5.66;94.72;98848.31;4898960;29;20060;-89
2022/12/17 22:24:29;;;;;;;0.70;0.70;;;;;;;-5.61;94.71;98853.16;4894723;29;20049;-88
2022/12/17 22:27:02;;;;;;;0.70;0.70;;;;;;;-5.62;94.62;98850.66;4893101;29;20815;-90
2022/12/17 22:35:02;;;;;;;0.90;0.90;;;;;;;-5.64;95.03;98835.03;4890173;29;20163;-89
2022/12/17 22:37:50;;;;;;;0.60;0.60;;;;;;;-5.63;94.99;98825.34;4896594;29;20095;-89
2022/12/17 22:40:38;;;;;;;0.73;0.73;;;;;;;-5.69;95.04;98811.81;4897046;29;20128;-89
2022/12/17 22:43:28;;;;;;;0.80;0.80;;;;;;;-5.72;95.30;98804.22;4894066;29;20163;-89
2022/12/17 22:46:15;;;;;;;0.65;0.65;;;;;;;-5.73;95.46;98794.66;4882869;29;20067;-90
2022/12/17 22:48:43;;;;;;;0.88;0.88;;;;;;;-5.74;95.45;98793.03;4893427;29;20131;-86
2022/12/17 22:51:11;;;;;;;0.50;0.50;;;;;;;-5.73;95.43;98791.22;4895572;29;20068;-88
2022/12/17 22:53:40;;;;;;;0.80;0.80;;;;;;;-5.76;95.70;98791.50;4897425;29;20060;-88
2022/12/17 22:56:08;;;;;;;0.77;0.77;;;;;;;-5.76;95.74;98794.97;4899192;29;20116;-88
2022/12/17 22:58:56;;;;;;;0.80;0.80;;;;;;;-5.76;96.07;98789.72;4901306;29;20697;-87
2022/12/17 23:01:23;;;;;;;0.77;0.77;;;;;;;-5.70;96.01;98788.28;4918529;29;20055;-89
2022/12/17 23:03:55;;;;;;;0.80;0.80;;;;;;;-5.76;95.87;98779.19;4902106;29;20508;-92
2022/12/17 23:06:27;;;;;;;0.93;0.93;;;;;;;-5.83;95.92;98769.41;4878431;29;20131;-91
2022/12/17 23:08:55;;;;;;;0.88;0.88;;;;;;;-5.79;96.03;98763.72;4905535;29;20080;-92
2022/12/17 23:11:26;;;;;;;0.82;0.82;;;;;;;-5.80;95.81;98759.41;4903851;29;20508;-93
2022/12/17 23:13:54;;;;;;;0.60;0.60;;;;;;;-5.85;96.04;98742.44;4900404;29;20056;-91
2022/12/17 23:16:23;;;;;;;0.80;0.80;;;;;;;-5.87;96.22;98734.72;4902918;29;20044;-89
2022/12/17 23:18:51;;;;;;;0.68;0.68;;;;;;;-5.86;96.37;98733.72;4901266;29;20052;-90
2022/12/17 23:21:23;;;;;;;0.80;0.80;;;;;;;-5.86;96.25;98732.91;4900214;29;20068;-88
2022/12/17 23:23:52;;;;;;;0.70;0.70;;;;;;;-5.85;96.56;98726.66;4882385;29;20055;-90
2022/12/17 23:26:30;;;;;;;0.55;0.55;;;;;;;-5.84;96.47;98729.16;4899119;29;20452;-90
2022/12/17 23:29:03;;;;;;;0.70;0.70;;;;;;;-5.90;96.25;98716.59;4903965;29;20053;-90
2022/12/17 23:31:37;;;;;;;0.65;0.65;;;;;;;-5.86;96.37;98725.03;4903795;29;20056;-89
2022/12/17 23:34:05;;;;;;;0.82;0.82;;;;;;;-5.90;96.40;98712.19;4916403;29;20063;-90
2022/12/17 23:36:32;;;;;;;0.70;0.70;;;;;;;-5.93;96.44;98694.06;4918100;29;20048;-89
2022/12/17 23:38:59;;;;;;;0.70;0.70;;;;;;;-5.90;96.46;98692.94;4905287;29;20075;-89
2022/12/17 23:41:28;;;;;;;0.70;0.70;;;;;;;-5.90;96.43;98683.28;4901639;29;20067;-89
2022/12/17 23:43:56;;;;;;;0.80;0.80;;;;;;;-5.93;96.26;98680.91;4917015;29;20045;-90
2022/12/17 23:46:26;;;;;;;0.85;0.85;;;;;;;-5.94;96.35;98674.06;4902259;29;20086;-88
2022/12/17 23:48:54;;;;;;;0.70;0.70;;;;;;;-5.95;96.20;98669.78;4902507;29;20052;-89
2022/12/17 23:51:22;;;;;;;0.57;0.57;;;;;;;-5.93;96.34;98656.44;4901656;29;20071;-89
2022/12/17 23:53:49;;;;;;;0.57;0.57;;;;;;;-5.92;96.42;98655.47;4913152;29;20056;-88
2022/12/17 23:56:19;;;;;;;0.80;0.80;;;;;;;-5.93;96.19;98645.94;4919905;29;20045;-88
2022/12/17 23:58:46;;;;;;;0.82;0.82;;;;;;;-5.93;96.33;98648.56;4913346;29;20056;-88
